Time;durP1;ratioP1;P1;durP2;ratioP2;P2;SDS_P1;SDS_P2;PMS_P1;PMS_P2;Temp;Humidity;BMP_temperature;BMP_pressure;BME280_temperature;BME280_humidity;BME280_pressure;Samples;Min_cycle;Max_cycle;Signal;HPM_P1;HPM_P2
2022/03/12 00:16:54;;;;;;;2.50;1.70;;;;;;;0.57;66.20;100256.69;4935268;29;20495;-91
2022/03/12 00:19:20;;;;;;;2.30;0.90;;;;;;;0.70;65.26;100254.16;4936276;29;20441;-91
2022/03/12 00:21:47;;;;;;;2.63;1.10;;;;;;;0.75;65.19;100253.34;4936017;29;20584;-91
2022/03/12 00:24:15;;;;;;;3.40;2.23;;;;;;;0.88;64.34;100246.50;4950846;29;20508;-91
2022/03/12 00:26:46;;;;;;;2.83;1.80;;;;;;;0.92;64.09;100232.75;4935983;29;20532;-91
2022/03/12 00:29:15;;;;;;;3.87;1.53;;;;;;;1.02;63.47;100235.34;4935002;29;20428;-91
2022/03/12 00:31:43;;;;;;;1.93;1.53;;;;;;;0.97;63.35;100237.06;4935918;29;20464;-91
2022/03/12 00:34:08;;;;;;;5.43;2.13;;;;;;;1.18;62.53;100236.25;4950842;29;20515;-91
2022/03/12 00:36:34;;;;;;;1.57;1.30;;;;;;;1.21;62.40;100231.13;4936036;29;20513;-91
2022/03/12 00:39:00;;;;;;;2.83;1.30;;;;;;;1.23;61.80;100232.00;4950766;29;20190;-91
2022/03/12 00:41:26;;;;;;;4.10;2.10;;;;;;;1.24;62.40;100225.97;4935761;29;20225;-91
2022/03/12 00:43:52;;;;;;;5.17;1.53;;;;;;;1.29;62.03;100232.00;4934791;29;20192;-91
2022/03/12 00:46:19;;;;;;;1.70;1.03;;;;;;;1.27;61.48;100238.88;4935655;29;20672;-91
2022/03/12 00:48:45;;;;;;;2.40;1.70;;;;;;;1.13;61.92;100231.09;4935714;29;20424;-91
2022/03/12 00:51:11;;;;;;;2.53;1.80;;;;;;;1.21;62.23;100231.97;4935969;29;20487;-91
2022/03/12 00:53:38;;;;;;;3.20;1.10;;;;;;;1.21;62.50;100220.78;4950653;29;20195;-91
2022/03/12 00:56:05;;;;;;;0.97;0.77;;;;;;;1.23;62.22;100217.34;4935642;29;20824;-92
2022/03/12 00:58:31;;;;;;;3.37;1.43;;;;;;;1.24;62.33;100210.47;4935640;29;20486;-91
2022/03/12 01:00:56;;;;;;;6.60;2.40;;;;;;;1.23;62.58;100209.59;4935897;29;20428;-91
2022/03/12 01:03:22;;;;;;;3.00;1.70;;;;;;;1.29;62.56;100213.03;4935606;29;20173;-92
2022/03/12 01:05:47;;;;;;;4.43;2.60;;;;;;;1.35;62.41;100219.09;4934617;29;20735;-92
2022/03/12 01:08:14;;;;;;;2.40;0.97;;;;;;;1.36;62.20;100220.84;4934550;29;20662;-92
2022/03/12 01:10:41;;;;;;;2.93;1.60;;;;;;;1.29;61.58;100213.91;4934643;29;20196;-91
2022/03/12 01:13:07;;;;;;;3.40;1.60;;;;;;;1.18;61.96;100216.47;4935294;29;20884;-92
2022/03/12 01:15:34;;;;;;;2.83;1.27;;;;;;;1.22;62.16;100217.34;4950213;29;21005;-92
2022/03/12 01:18:00;;;;;;;6.80;1.70;;;;;;;1.20;61.98;100219.94;4957458;29;20194;-92
2022/03/12 01:20:26;;;;;;;1.87;1.30;;;;;;;1.22;61.41;100217.34;4958336;29;20431;-92
2022/03/12 01:22:51;;;;;;;1.97;1.70;;;;;;;1.19;61.46;100214.75;4957415;29;20615;-92
2022/03/12 01:25:17;;;;;;;2.07;1.70;;;;;;;1.16;61.91;100214.75;4958257;29;20211;-91
2022/03/12 01:27:43;;;;;;;2.43;1.73;;;;;;;1.17;61.78;100221.66;4958252;29;20180;-92
2022/03/12 01:30:09;;;;;;;2.43;1.23;;;;;;;1.20;61.68;100213.91;4958209;29;20231;-92
2022/03/12 01:32:35;;;;;;;1.97;0.90;;;;;;;1.01;61.94;100207.84;4958105;29;20194;-92
2022/03/12 01:35:01;;;;;;;2.83;1.47;;;;;;;0.89;62.53;100212.13;4958118;29;20183;-92
2022/03/12 01:37:27;;;;;;;1.63;1.03;;;;;;;0.73;63.00;100205.16;4958443;29;20431;-91
2022/03/12 01:39:52;;;;;;;1.87;1.33;;;;;;;0.73;63.03;100205.16;4957236;29;20222;-92
2022/03/12 01:42:20;;;;;;;2.00;1.03;;;;;;;0.81;62.62;100213.81;4958513;29;20179;-92
2022/03/12 01:44:46;;;;;;;3.60;2.30;;;;;;;0.74;63.24;100215.47;4957923;29;20242;-92
2022/03/12 01:47:15;;;;;;;1.03;0.77;;;;;;;0.76;62.99;100212.91;4956934;29;20925;-92
2022/03/12 01:49:41;;;;;;;4.33;2.10;;;;;;;0.69;63.26;100213.72;4957972;29;20275;-92
2022/03/12 01:52:08;;;;;;;2.20;1.83;;;;;;;0.70;63.82;100211.19;4957953;29;20916;-92
2022/03/12 01:54:34;;;;;;;1.93;1.50;;;;;;;0.63;63.11;100218.88;4940884;29;20843;-92
2022/03/12 01:57:00;;;;;;;1.33;1.00;;;;;;;0.68;63.79;100202.56;4956877;29;20947;-92
2022/03/12 01:59:25;;;;;;;0.90;0.90;;;;;;;0.59;63.71;100200.81;4956846;29;20476;-92
2022/03/12 02:01:52;;;;;;;1.13;0.80;;;;;;;0.63;63.48;100204.25;4957705;29;20195;-93
2022/03/12 02:04:23;;;;;;;1.10;1.00;;;;;;;0.73;63.25;100205.16;4956652;29;20541;-92
2022/03/12 02:06:50;;;;;;;3.90;1.70;;;;;;;0.70;63.12;100207.72;4957677;29;20433;-92
2022/03/12 02:09:18;;;;;;;1.80;1.23;;;;;;;0.64;62.70;100208.56;4957582;29;20426;-92
2022/03/12 02:11:50;;;;;;;2.40;1.83;;;;;;;0.60;62.43;100209.41;4956705;29;20417;-92
2022/03/12 02:14:24;;;;;;;2.20;1.47;;;;;;;0.65;62.20;100215.47;4957543;29;20441;-93
2022/03/12 02:16:52;;;;;;;3.90;1.83;;;;;;;0.61;62.77;100209.41;4957788;29;20417;-92
2022/03/12 02:19:19;;;;;;;2.07;1.40;;;;;;;0.65;62.79;100215.47;4957474;29;20919;-93
2022/03/12 02:21:56;;;;;;;7.13;1.80;;;;;;;0.71;62.37;100215.47;4957472;29;20426;-93
2022/03/12 02:24:24;;;;;;;2.87;1.27;;;;;;;0.81;61.79;100213.81;4955934;28;20456;-92
2022/03/12 02:26:50;;;;;;;3.27;2.30;;;;;;;0.83;61.57;100218.09;4957361;29;20428;-93
2022/03/12 02:29:20;;;;;;;7.13;2.20;;;;;;;0.77;60.77;100210.34;4957357;29;20462;-93
2022/03/12 02:32:03;;;;;;;1.27;1.10;;;;;;;0.65;61.20;100212.00;4957399;29;20228;-93
2022/03/12 02:34:46;;;;;;;1.77;1.50;;;;;;;0.67;61.09;100210.28;4957843;29;20740;-93
2022/03/12 02:37:19;;;;;;;1.53;1.07;;;;;;;0.71;61.12;100214.63;4957428;29;20414;-93
2022/03/12 02:39:44;;;;;;;2.33;1.03;;;;;;;0.75;61.07;100206.91;4940332;29;20901;-93
2022/03/12 02:42:11;;;;;;;5.57;2.27;;;;;;;0.81;60.84;100203.47;4957098;29;20518;-93
2022/03/12 02:44:37;;;;;;;4.83;1.27;;;;;;;0.82;60.46;100205.19;4956912;29;20201;-92
2022/03/12 02:47:15;;;;;;;7.03;2.90;;;;;;;0.83;59.93;100212.94;4957128;29;20421;-93
2022/03/12 02:49:53;;;;;;;9.27;2.33;;;;;;;0.86;60.04;100212.09;4956137;28;20698;-93
2022/03/12 02:52:21;;;;;;;5.87;2.90;;;;;;;0.88;59.79;100210.38;4957018;29;20463;-93
2022/03/12 02:54:48;;;;;;;5.23;2.60;;;;;;;0.88;59.54;100212.94;4940318;29;20420;-93
2022/03/12 02:57:14;;;;;;;8.77;2.07;;;;;;;0.85;59.32;100212.94;4956079;28;20421;-93
2022/03/12 02:59:43;;;;;;;3.63;2.67;;;;;;;0.85;59.12;100212.94;4956824;29;20762;-93
2022/03/12 03:02:12;;;;;;;2.87;1.37;;;;;;;0.83;59.01;100212.06;4956859;29;20412;-93
2022/03/12 03:04:40;;;;;;;1.10;0.87;;;;;;;0.81;58.36;100211.22;4957079;29;20872;-93
2022/03/12 03:07:08;;;;;;;5.33;1.63;;;;;;;0.73;58.15;100216.34;4955770;29;20420;-93
2022/03/12 03:09:33;;;;;;;1.03;0.93;;;;;;;0.67;57.21;100218.91;4956959;29;20507;-93
2022/03/12 03:12:03;;;;;;;2.23;2.03;;;;;;;0.59;57.16;100212.84;4955708;28;20565;-93
2022/03/12 03:14:28;;;;;;;1.60;1.23;;;;;;;0.56;56.70;100213.69;4956447;29;20178;-93
2022/03/12 03:16:55;;;;;;;3.30;1.10;;;;;;;0.55;56.25;100211.94;4955676;29;20421;-94
2022/03/12 03:19:26;;;;;;;0.83;0.77;;;;;;;0.56;56.07;100213.69;4956664;29;20175;-93
2022/03/12 03:21:53;;;;;;;1.53;0.80;;;;;;;0.48;55.58;100206.75;4956726;29;20402;-93
2022/03/12 03:24:19;;;;;;;1.03;0.63;;;;;;;0.41;54.67;100211.03;4956355;29;20978;-93
2022/03/12 03:26:45;;;;;;;1.63;0.83;;;;;;;0.33;54.23;100222.16;4956392;29;20941;-92
2022/03/12 03:29:10;;;;;;;2.10;1.33;;;;;;;0.20;54.24;100221.22;4956557;29;20516;-94
2022/03/12 03:31:36;;;;;;;2.67;1.53;;;;;;;0.16;54.12;100216.91;4956320;29;20185;-93
2022/03/12 03:34:02;;;;;;;2.17;1.40;;;;;;;-0.07;53.61;100224.47;4955398;29;20205;-93
2022/03/12 03:36:27;;;;;;;1.87;1.30;;;;;;;-0.13;53.93;100223.59;4939292;29;20209;-94
2022/03/12 03:38:53;;;;;;;3.67;1.30;;;;;;;-0.20;54.12;100216.63;4955349;29;20303;-93
2022/03/12 03:41:18;;;;;;;0.83;0.77;;;;;;;-0.25;54.18;100220.91;4956180;29;20178;-93
2022/03/12 03:43:45;;;;;;;2.23;1.67;;;;;;;-0.37;53.98;100213.94;4956399;29;20256;-94
2022/03/12 03:46:15;;;;;;;2.90;1.43;;;;;;;-0.33;54.53;100219.97;4956156;29;20229;-94
2022/03/12 03:48:40;;;;;;;0.63;0.60;;;;;;;-0.17;54.08;100216.66;4956176;29;20487;-94
2022/03/12 03:51:06;;;;;;;3.03;1.07;;;;;;;-0.20;53.58;100225.25;4955126;29;20483;-93
2022/03/12 03:53:32;;;;;;;1.43;1.33;;;;;;;-0.24;52.82;100220.94;4955127;29;20712;-94
2022/03/12 03:56:01;;;;;;;5.77;1.23;;;;;;;-0.21;52.54;100230.41;4955084;29;20526;-94
2022/03/12 03:58:27;;;;;;;1.70;1.57;;;;;;;-0.14;52.69;100232.16;4955347;29;20224;-94
2022/03/12 04:00:53;;;;;;;2.77;1.73;;;;;;;-0.19;51.60;100228.69;4939071;29;20505;-94
2022/03/12 04:03:19;;;;;;;5.13;1.20;;;;;;;-0.16;52.02;100223.56;4954847;28;20448;-94
2022/03/12 04:05:44;;;;;;;2.00;1.00;;;;;;;-0.26;51.05;100224.34;4955670;29;20228;-94
2022/03/12 04:08:10;;;;;;;1.10;0.73;;;;;;;-0.21;50.74;100228.66;4955711;29;20181;-94
2022/03/12 04:10:39;;;;;;;2.90;1.07;;;;;;;-0.13;50.49;100231.31;4955723;29;20646;-94
2022/03/12 04:13:12;;;;;;;3.37;1.47;;;;;;;-0.07;50.94;100232.22;4955008;28;20240;-94
2022/03/12 04:15:39;;;;;;;0.63;0.63;;;;;;;-0.09;50.39;100226.19;4955701;29;20433;-94
2022/03/12 04:18:05;;;;;;;2.20;1.73;;;;;;;-0.15;50.53;100228.72;4955704;29;20420;-95
2022/03/12 04:20:31;;;;;;;1.43;1.07;;;;;;;-0.14;50.20;100237.31;4955697;29;20912;-94
2022/03/12 04:22:56;;;;;;;4.17;1.10;;;;;;;-0.08;50.37;100242.53;4955492;29;20432;-94
2022/03/12 04:25:22;;;;;;;1.17;1.00;;;;;;;-0.08;50.77;100232.22;4938787;29;20210;-95
2022/03/12 04:27:49;;;;;;;2.27;1.33;;;;;;;-0.10;50.79;100242.50;4955813;29;20181;-94
2022/03/12 04:30:19;;;;;;;2.83;1.47;;;;;;;-0.24;50.42;100248.41;4955562;29;20251;-94
2022/03/12 04:32:46;;;;;;;1.17;0.80;;;;;;;-0.27;50.88;100243.22;4954604;29;20480;-94
2022/03/12 04:35:12;;;;;;;4.80;1.70;;;;;;;-0.37;51.04;100242.28;4955436;29;20806;-94
2022/03/12 04:37:38;;;;;;;3.87;1.57;;;;;;;-0.32;51.27;100250.03;4955347;29;20882;-95
2022/03/12 04:40:10;;;;;;;4.60;2.60;;;;;;;-0.31;51.23;100255.19;4954618;29;20425;-94
2022/03/12 04:42:42;;;;;;;2.83;2.30;;;;;;;-0.25;51.39;100250.09;4955727;29;20161;-95
2022/03/12 04:45:10;;;;;;;5.23;1.63;;;;;;;-0.19;51.43;100267.34;4955574;29;20991;-94
2022/03/12 04:47:36;;;;;;;1.07;0.97;;;;;;;-0.20;50.32;100268.16;4954088;28;20436;-94
2022/03/12 04:50:05;;;;;;;3.10;2.50;;;;;;;-0.21;50.07;100262.16;4955253;29;20413;-95
2022/03/12 04:52:31;;;;;;;2.80;1.87;;;;;;;-0.22;50.48;100270.75;4955463;29;20464;-94
2022/03/12 04:54:58;;;;;;;4.50;2.27;;;;;;;-0.39;49.81;100261.16;4955319;29;20413;-94
2022/03/12 04:57:23;;;;;;;2.53;1.30;;;;;;;-0.47;49.28;100255.06;4954440;29;20425;-95
2022/03/12 04:59:49;;;;;;;5.43;1.43;;;;;;;-0.57;49.03;100255.78;4955422;29;20513;-94
2022/03/12 05:02:14;;;;;;;0.63;0.60;;;;;;;-0.73;49.61;100268.50;4955245;29;20707;-94
2022/03/12 05:04:40;;;;;;;3.10;0.90;;;;;;;-0.78;49.75;100257.31;4955022;29;20232;-94
2022/03/12 05:07:08;;;;;;;0.93;0.70;;;;;;;-0.87;49.47;100254.66;4954241;29;20189;-95
2022/03/12 05:09:35;;;;;;;1.07;0.93;;;;;;;-0.82;49.15;100260.72;4955368;29;20216;-94
2022/03/12 05:12:05;;;;;;;1.47;1.07;;;;;;;-0.76;49.25;100263.34;4938212;29;20432;-94
2022/03/12 05:14:35;;;;;;;1.93;0.67;;;;;;;-0.63;49.43;100270.34;4954876;29;20484;-94
2022/03/12 05:17:06;;;;;;;1.73;1.23;;;;;;;-0.51;49.00;100266.16;4954699;29;20428;-94
2022/03/12 05:19:35;;;;;;;1.03;0.60;;;;;;;-0.50;48.17;100268.78;4955596;29;21015;-93
2022/03/12 05:22:02;;;;;;;6.07;1.43;;;;;;;-0.55;47.79;100272.16;4954153;29;20587;-94
2022/03/12 05:24:28;;;;;;;0.47;0.47;;;;;;;-0.34;48.70;100274.94;4954886;29;20425;-94
2022/03/12 05:26:53;;;;;;;0.70;0.70;;;;;;;-0.11;48.20;100282.00;4954916;29;20421;-94
2022/03/12 05:29:21;;;;;;;3.53;1.77;;;;;;;-0.02;48.36;100284.66;4955037;29;20560;-94
2022/03/12 05:31:47;;;;;;;1.27;0.90;;;;;;;-0.02;47.66;100284.66;4953791;29;20335;-92
2022/03/12 05:34:12;;;;;;;1.97;0.87;;;;;;;-0.07;47.37;100285.47;4954657;29;20417;-92
2022/03/12 05:36:37;;;;;;;1.00;0.73;;;;;;;-0.12;48.27;100279.41;4953626;29;20247;-93
2022/03/12 05:39:03;;;;;;;1.27;1.10;;;;;;;0.00;48.09;100282.09;4953847;29;20208;-92
2022/03/12 05:41:29;;;;;;;2.03;0.90;;;;;;;0.06;48.06;100282.13;4953680;29;20648;-93
2022/03/12 05:43:55;;;;;;;2.30;1.00;;;;;;;0.41;48.35;100283.25;4954596;29;20212;-92
2022/03/12 05:46:21;;;;;;;1.73;1.23;;;;;;;0.62;47.44;100274.78;4954492;29;20484;-92
2022/03/12 05:48:47;;;;;;;5.07;2.07;;;;;;;0.93;48.40;100281.81;4953487;29;20519;-92
2022/03/12 05:51:13;;;;;;;1.73;1.20;;;;;;;1.26;46.90;100281.06;4954449;29;20253;-92
2022/03/12 05:53:39;;;;;;;3.30;1.43;;;;;;;1.76;44.33;100284.59;4953442;28;20466;-92
2022/03/12 05:56:05;;;;;;;5.53;2.03;;;;;;;1.35;43.67;100280.22;4953405;29;20446;-91
2022/03/12 05:58:35;;;;;;;3.43;1.47;;;;;;;1.62;44.71;100290.63;4954557;29;20190;-92
2022/03/12 06:01:01;;;;;;;3.07;0.80;;;;;;;1.50;44.03;100288.88;4956235;28;20416;-91
2022/03/12 06:03:27;;;;;;;3.53;2.00;;;;;;;1.71;44.21;100295.78;4958235;29;20476;-92
2022/03/12 06:05:58;;;;;;;0.73;0.67;;;;;;;1.78;42.86;100297.56;4957526;29;20219;-91
2022/03/12 06:08:26;;;;;;;4.30;2.23;;;;;;;2.37;42.05;100302.72;4956660;29;20642;-91
2022/03/12 06:10:55;;;;;;;5.77;2.30;;;;;;;3.01;41.06;100300.84;4957509;29;20484;-91
2022/03/12 06:13:28;;;;;;;4.03;1.63;;;;;;;4.06;44.02;100307.13;4956474;28;20449;-90
2022/03/12 06:15:58;;;;;;;3.27;1.30;;;;;;;5.01;38.84;100288.88;4957365;29;20621;-90
2022/03/12 06:18:44;;;;;;;2.80;1.30;;;;;;;6.33;40.30;100280.06;4957616;29;20257;-90
2022/03/12 06:21:09;;;;;;;3.83;1.70;;;;;;;7.19;35.75;100287.09;4956332;29;20417;-89
2022/03/12 06:23:35;;;;;;;5.03;2.03;;;;;;;7.73;34.74;100289.41;4956349;29;20604;-89
2022/03/12 06:26:04;;;;;;;1.60;1.33;;;;;;;8.13;32.10;100284.09;4957725;29;20355;-89
2022/03/12 06:28:30;;;;;;;6.90;1.50;;;;;;;8.23;34.58;100296.06;4957201;29;20185;-88
2022/03/12 06:30:55;;;;;;;1.87;1.57;;;;;;;7.54;32.88;100306.38;4957168;29;20259;-88
2022/03/12 06:33:22;;;;;;;1.53;1.03;;;;;;;6.60;32.93;100305.63;4957080;29;20319;-88
2022/03/12 06:35:48;;;;;;;3.63;1.90;;;;;;;6.93;33.95;100296.31;4957067;29;20218;-88
2022/03/12 06:38:15;;;;;;;6.43;2.10;;;;;;;7.15;33.17;100306.31;4956029;29;20276;-88
2022/03/12 06:40:41;;;;;;;3.03;1.43;;;;;;;7.03;32.73;100306.53;4956018;29;20651;-88
2022/03/12 06:43:09;;;;;;;4.73;1.30;;;;;;;7.27;34.62;100310.41;4939989;29;20185;-87
2022/03/12 06:45:35;;;;;;;3.20;1.70;;;;;;;7.93;34.48;100310.69;4956888;29;20196;-88
2022/03/12 06:48:01;;;;;;;3.00;1.77;;;;;;;7.51;32.40;100316.84;4956880;29;20173;-90
2022/03/12 06:50:28;;;;;;;5.57;2.07;;;;;;;7.12;34.20;100323.75;4957054;29;20520;-87
2022/03/12 06:52:55;;;;;;;4.43;1.90;;;;;;;7.37;32.99;100317.16;4956783;29;20226;-88
2022/03/12 06:55:26;;;;;;;3.67;2.43;;;;;;;7.65;34.74;100322.66;4956987;29;20603;-88
2022/03/12 06:57:53;;;;;;;2.57;1.33;;;;;;;8.04;32.46;100314.75;4939759;29;20169;-88
2022/03/12 07:00:24;;;;;;;3.23;1.50;;;;;;;8.02;32.33;100324.38;4957128;29;20177;-88
2022/03/12 07:02:49;;;;;;;1.73;1.10;;;;;;;7.78;31.91;100314.50;4956893;29;20162;-89
2022/03/12 07:05:15;;;;;;;7.07;2.27;;;;;;;7.23;33.70;100319.19;4955500;29;20233;-87
2022/03/12 07:07:40;;;;;;;2.37;0.90;;;;;;;6.81;34.74;100331.31;4956733;29;20176;-88
2022/03/12 07:10:08;;;;;;;2.10;1.67;;;;;;;6.89;33.42;100321.59;4956640;29;20189;-88
2022/03/12 07:12:36;;;;;;;4.50;1.53;;;;;;;6.84;32.50;100335.59;4955004;28;20177;-88
2022/03/12 07:15:03;;;;;;;2.00;1.17;;;;;;;6.27;34.12;100340.03;4955158;28;20233;-88
2022/03/12 07:17:28;;;;;;;2.90;1.37;;;;;;;5.69;34.37;100340.00;4956731;29;20169;-89
2022/03/12 07:19:54;;;;;;;5.97;1.80;;;;;;;5.29;34.69;100339.69;4955266;29;20181;-89
2022/03/12 07:22:19;;;;;;;2.07;0.90;;;;;;;5.36;36.44;100339.59;4955283;29;20177;-89
2022/03/12 07:24:45;;;;;;;3.83;1.10;;;;;;;5.71;37.17;100335.66;4955475;29;20228;-89
2022/03/12 07:27:12;;;;;;;5.70;1.83;;;;;;;5.52;35.75;100351.53;4955157;29;20185;-89
2022/03/12 07:29:37;;;;;;;4.87;1.80;;;;;;;5.47;34.97;100353.31;4955380;29;20185;-89
2022/03/12 07:32:03;;;;;;;3.50;1.30;;;;;;;5.17;35.31;100361.47;4956789;29;20177;-89
2022/03/12 07:34:29;;;;;;;1.47;1.37;;;;;;;5.22;35.67;100357.06;4956634;29;20173;-89
2022/03/12 07:36:54;;;;;;;1.77;0.90;;;;;;;4.21;36.04;100369.31;4955869;29;20264;-90
2022/03/12 07:39:20;;;;;;;2.87;1.20;;;;;;;4.32;37.16;100369.22;4956257;29;20177;-89
2022/03/12 07:41:46;;;;;;;6.20;1.43;;;;;;;4.16;36.97;100370.22;4955918;29;20563;-89
2022/03/12 07:44:12;;;;;;;3.37;1.07;;;;;;;4.22;37.04;100377.94;4955759;29;20173;-89
2022/03/12 07:46:37;;;;;;;2.90;0.97;;;;;;;4.08;37.61;100375.47;4955668;29;20682;-89
2022/03/12 07:49:06;;;;;;;3.40;1.33;;;;;;;4.10;37.48;100368.53;4955706;29;20259;-90
2022/03/12 07:51:34;;;;;;;1.23;1.13;;;;;;;3.90;39.34;100372.97;4955688;29;20184;-89
2022/03/12 07:54:00;;;;;;;2.77;1.20;;;;;;;4.05;39.71;100379.78;4955913;29;20173;-89
2022/03/12 07:56:27;;;;;;;2.77;0.93;;;;;;;3.78;36.74;100370.44;4955578;29;20204;-89
2022/03/12 07:58:55;;;;;;;1.37;1.20;;;;;;;3.75;39.62;100373.03;4955590;29;20173;-89
2022/03/12 08:01:21;;;;;;;4.10;1.63;;;;;;;4.09;38.94;100377.16;4955535;29;20191;-89
2022/03/12 08:03:46;;;;;;;1.60;1.17;;;;;;;3.96;39.21;100369.47;4955995;29;20267;-89
2022/03/12 08:06:14;;;;;;;3.17;0.90;;;;;;;3.93;39.84;100375.53;4954748;29;20193;-89
2022/03/12 08:08:39;;;;;;;1.30;1.20;;;;;;;3.61;38.14;100380.91;4954800;29;20177;-88
2022/03/12 08:13:48;;;;;;;2.80;1.03;;;;;;;4.32;37.78;100383.03;4955371;29;20172;-88
2022/03/12 08:16:14;;;;;;;1.77;1.30;;;;;;;4.25;37.94;100378.78;4955427;29;20225;-88
2022/03/12 08:18:41;;;;;;;3.90;1.43;;;;;;;4.27;39.61;100376.19;4955222;29;20655;-88
2022/03/12 08:21:06;;;;;;;3.50;1.43;;;;;;;4.14;38.38;100372.78;4955216;29;20169;-89
2022/03/12 08:23:33;;;;;;;5.63;2.10;;;;;;;3.83;38.51;100381.66;4954491;28;20231;-89
2022/03/12 08:25:59;;;;;;;12.40;1.20;;;;;;;4.16;37.46;100367.63;4954127;29;20189;-88
2022/03/12 08:28:34;;;;;;;0.87;0.67;;;;;;;4.05;37.14;100370.28;4954497;28;20255;-94
2022/03/12 08:31:02;;;;;;;2.47;0.97;;;;;;;3.77;39.61;100373.06;4955554;29;20161;-87
2022/03/12 08:33:28;;;;;;;1.40;0.70;;;;;;;4.10;37.72;100368.53;4955360;29;20651;-88
2022/03/12 08:35:53;;;;;;;3.07;0.73;;;;;;;4.23;38.46;100364.97;4955354;29;20204;-90
2022/03/12 08:38:19;;;;;;;2.10;1.23;;;;;;;4.06;38.07;100377.19;4954225;29;20632;-89
2022/03/12 08:40:46;;;;;;;3.73;1.63;;;;;;;4.05;37.80;100378.06;4954991;29;20174;-88
2022/03/12 08:43:13;;;;;;;4.23;0.97;;;;;;;3.83;37.54;100375.59;4955276;29;20192;-88
2022/03/12 08:45:38;;;;;;;2.57;1.60;;;;;;;3.85;36.81;100382.53;4955147;29;20218;-88
2022/03/12 08:48:04;;;;;;;3.97;1.93;;;;;;;3.57;37.75;100386.09;4955311;29;20293;-88
2022/03/12 08:50:33;;;;;;;3.77;1.47;;;;;;;3.88;38.94;100381.66;4953917;29;20183;-88
2022/03/12 08:52:58;;;;;;;2.93;1.17;;;;;;;4.07;36.79;100380.63;4954192;29;20271;-87
2022/03/12 08:55:25;;;;;;;4.60;1.17;;;;;;;4.16;37.72;100384.06;4954807;29;20251;-88
2022/03/12 08:57:52;;;;;;;3.50;1.47;;;;;;;4.49;37.92;100376.84;4954815;29;20529;-88
2022/03/12 09:00:19;;;;;;;3.00;1.27;;;;;;;4.13;36.42;100383.19;4938531;29;20204;-88
2022/03/12 09:02:47;;;;;;;1.63;0.90;;;;;;;3.89;35.74;100379.03;4954898;29;20528;-89
2022/03/12 09:05:14;;;;;;;2.00;0.83;;;;;;;3.82;37.30;100387.72;4954576;28;20205;-90
2022/03/12 09:07:41;;;;;;;2.23;0.90;;;;;;;4.01;37.04;100384.13;4953787;29;20177;-88
2022/03/12 09:10:11;;;;;;;2.03;1.33;;;;;;;3.91;36.39;100387.66;4937812;29;20189;-88
2022/03/12 09:12:37;;;;;;;1.53;1.07;;;;;;;3.46;36.06;100382.72;4953847;28;20192;-90
2022/03/12 09:15:04;;;;;;;1.10;0.87;;;;;;;3.19;36.15;100395.75;4937713;29;20205;-88
2022/03/12 09:17:30;;;;;;;1.43;1.30;;;;;;;3.40;37.13;100393.09;4953733;29;20657;-88
2022/03/12 09:19:55;;;;;;;2.63;0.77;;;;;;;3.75;37.55;100390.38;4953672;29;20173;-88
2022/03/12 09:22:21;;;;;;;1.83;1.03;;;;;;;3.86;36.40;100381.63;4953668;29;20216;-87
2022/03/12 09:24:46;;;;;;;2.20;1.20;;;;;;;3.60;38.07;100392.16;4953622;29;20213;-89
2022/03/12 09:27:12;;;;;;;4.57;2.00;;;;;;;3.07;38.16;100396.63;4953926;28;20340;-87
2022/03/12 09:29:38;;;;;;;5.80;1.13;;;;;;;3.18;36.88;100391.44;4953608;29;20220;-89
2022/03/12 09:32:10;;;;;;;1.50;1.30;;;;;;;3.18;39.10;100396.59;4954669;29;20682;-88
2022/03/12 09:34:35;;;;;;;2.20;1.00;;;;;;;3.31;36.43;100387.94;4955285;28;20267;-89
2022/03/12 09:37:02;;;;;;;1.27;1.00;;;;;;;3.40;37.28;100382.72;4958286;29;20751;-95
2022/03/12 09:39:28;;;;;;;2.50;1.03;;;;;;;3.49;36.14;100383.56;4958140;29;20173;-89
2022/03/12 09:41:54;;;;;;;0.80;0.67;;;;;;;3.31;37.63;100385.34;4958123;29;20703;-87
2022/03/12 09:44:19;;;;;;;1.07;0.90;;;;;;;3.42;36.10;100387.03;4958066;29;20627;-88
2022/03/12 09:46:45;;;;;;;6.13;2.17;;;;;;;3.75;36.53;100388.59;4957923;29;20663;-88
2022/03/12 09:49:11;;;;;;;1.70;1.20;;;;;;;3.74;36.18;100389.50;4958229;29;20177;-88
2022/03/12 09:51:37;;;;;;;9.70;2.33;;;;;;;3.43;35.72;100385.31;4957964;29;20512;-89
2022/03/12 09:54:04;;;;;;;2.57;1.67;;;;;;;3.47;37.83;100389.59;4958109;29;20189;-87
2022/03/12 09:56:30;;;;;;;3.40;1.60;;;;;;;3.36;36.09;100383.59;4957848;29;20184;-87
2022/03/12 09:58:56;;;;;;;5.27;1.97;;;;;;;3.92;37.93;100388.53;4956809;29;20173;-87
2022/03/12 10:01:21;;;;;;;4.93;1.10;;;;;;;3.83;37.43;100379.06;4956756;29;20192;-87
2022/03/12 10:03:47;;;;;;;1.30;0.87;;;;;;;3.48;37.73;100380.97;4957041;29;20184;-89
2022/03/12 10:06:15;;;;;;;3.87;2.20;;;;;;;3.54;38.46;100389.56;4957569;29;20193;-87
2022/03/12 10:08:41;;;;;;;3.47;1.47;;;;;;;4.01;35.99;100391.91;4956608;29;20181;-87
2022/03/12 10:11:07;;;;;;;2.90;1.30;;;;;;;4.39;36.91;100385.59;4940677;29;20185;-88
2022/03/12 10:13:33;;;;;;;3.47;1.43;;;;;;;4.36;35.79;100381.28;4957846;29;20177;-88
2022/03/12 10:15:59;;;;;;;2.63;1.67;;;;;;;4.48;35.96;100383.78;4956342;29;20200;-87
2022/03/12 10:18:25;;;;;;;3.57;1.27;;;;;;;4.35;37.08;100389.94;4957458;29;20631;-88
2022/03/12 10:20:51;;;;;;;4.93;1.10;;;;;;;4.24;37.13;100384.00;4956402;29;20644;-87
2022/03/12 10:23:17;;;;;;;1.63;1.17;;;;;;;4.25;37.35;100383.09;4957290;29;20192;-88
2022/03/12 10:25:42;;;;;;;2.60;1.20;;;;;;;3.74;35.90;100392.09;4957214;29;20549;-87
2022/03/12 10:28:08;;;;;;;1.43;0.97;;;;;;;3.37;37.60;100381.03;4957162;29;20187;-88
2022/03/12 10:30:36;;;;;;;2.37;1.17;;;;;;;3.77;38.00;100376.53;4956207;29;20623;-87
2022/03/12 10:33:02;;;;;;;1.43;0.90;;;;;;;4.16;37.35;100372.81;4957156;29;20181;-87
2022/03/12 10:35:41;;;;;;;1.10;0.63;;;;;;;4.17;38.31;100374.50;4957107;29;20587;-87
2022/03/12 10:38:11;;;;;;;2.00;1.00;;;;;;;4.27;37.48;100374.44;4957307;29;20686;-88
2022/03/12 10:40:37;;;;;;;12.73;1.03;;;;;;;4.61;36.57;100348.22;4957247;29;20173;-88
2022/03/12 10:43:12;;;;;;;1.60;1.03;;;;;;;4.54;36.79;100370.75;4940055;29;20184;-88
2022/03/12 10:45:52;;;;;;;0.73;0.70;;;;;;;3.93;36.76;100369.50;4955094;28;20339;-87
2022/03/12 10:48:20;;;;;;;2.83;0.90;;;;;;;3.67;37.43;100367.03;4957520;29;20663;-88
2022/03/12 10:50:50;;;;;;;2.47;1.23;;;;;;;3.44;38.93;100356.78;4955945;29;20192;-89
2022/03/12 10:53:17;;;;;;;3.60;1.97;;;;;;;3.54;37.99;100358.47;4957440;29;20177;-87
2022/03/12 10:55:45;;;;;;;4.63;2.03;;;;;;;3.53;39.45;100354.16;4956773;29;20172;-87
2022/03/12 10:58:16;;;;;;;0.73;0.73;;;;;;;3.32;38.83;100350.81;4956823;29;20220;-87
2022/03/12 11:00:47;;;;;;;2.20;1.23;;;;;;;3.57;39.86;100342.03;4956719;29;20176;-88
2022/03/12 11:03:20;;;;;;;3.10;1.40;;;;;;;4.04;40.28;100350.38;4956980;29;20504;-87
2022/03/12 11:05:47;;;;;;;2.80;1.47;;;;;;;4.12;38.53;100340.81;4939693;29;20197;-88
2022/03/12 11:08:27;;;;;;;0.97;0.50;;;;;;;3.81;38.46;100339.31;4955598;29;20267;-90
2022/03/12 11:11:00;;;;;;;0.53;0.40;;;;;;;3.98;39.82;100326.25;4956851;29;20256;-89
2022/03/12 11:13:44;;;;;;;5.93;2.27;;;;;;;3.95;42.20;100339.22;4957077;29;20173;-91
2022/03/12 11:16:24;;;;;;;1.07;0.87;;;;;;;3.86;40.97;100332.34;4955990;29;20656;-90
2022/03/12 11:18:52;;;;;;;2.30;1.37;;;;;;;4.09;43.27;100322.69;4955551;29;20240;-89
2022/03/12 11:21:36;;;;;;;2.80;1.70;;;;;;;4.21;43.57;100317.41;4955504;28;20181;-92
2022/03/12 11:24:05;;;;;;;3.07;0.93;;;;;;;4.08;42.58;100323.56;4956505;29;20244;-91
2022/03/12 11:26:43;;;;;;;2.97;1.47;;;;;;;4.76;44.40;100294.38;4956154;29;20193;-90
2022/03/12 11:29:10;;;;;;;4.47;2.43;;;;;;;5.33;42.79;100295.44;4956709;29;20240;-89
2022/03/12 11:31:39;;;;;;;5.97;3.10;;;;;;;5.30;41.31;100289.41;4956444;29;20174;-91
2022/03/12 11:34:25;;;;;;;6.10;3.37;;;;;;;5.68;40.41;100291.50;4956141;29;20174;-92
2022/03/12 11:36:57;;;;;;;6.63;1.93;;;;;;;5.59;39.06;100290.72;4956183;29;20189;-91
2022/03/12 11:39:36;;;;;;;3.00;1.40;;;;;;;5.50;36.86;100295.22;4956213;29;20174;-93
2022/03/12 11:42:15;;;;;;;3.67;2.00;;;;;;;5.21;37.73;100297.31;4939187;29;20175;-91
2022/03/12 11:44:51;;;;;;;1.83;1.00;;;;;;;5.14;39.89;100293.94;4956194;29;20161;-91
2022/03/12 11:47:31;;;;;;;3.70;1.70;;;;;;;5.38;40.10;100296.22;4955100;29;20174;-92
2022/03/12 11:50:01;;;;;;;2.37;1.70;;;;;;;5.21;40.59;100302.53;4955872;29;20628;-92
2022/03/12 11:52:27;;;;;;;1.33;0.60;;;;;;;4.96;38.39;100296.75;4956043;29;20270;-90